createdAt,value
2018-08-10T00:02:05.306Z,99.90
2018-08-10T00:04:32.451Z,99.90
2018-08-10T00:06:59.858Z,99.90
2018-08-10T00:09:27.109Z,99.90
2018-08-10T00:11:54.268Z,99.90
2018-08-10T00:14:21.444Z,99.90
2018-08-10T00:16:48.576Z,99.90
2018-08-10T00:19:15.720Z,99.90
2018-08-10T00:21:42.872Z,99.90
2018-08-10T00:24:09.970Z,99.90
2018-08-10T00:26:37.101Z,99.90
2018-08-10T00:29:04.345Z,99.90
2018-08-10T00:31:31.808Z,99.90
2018-08-10T00:33:59.000Z,99.90
2018-08-10T00:36:26.117Z,99.90
2018-08-10T00:38:53.247Z,99.90
2018-08-10T00:41:20.376Z,99.90
2018-08-10T00:43:47.538Z,99.90
2018-08-10T00:46:14.728Z,99.90
2018-08-10T00:48:41.881Z,99.90
2018-08-10T00:51:08.996Z,99.90
2018-08-10T00:53:36.101Z,99.90
2018-08-10T00:56:03.237Z,99.90
2018-08-10T00:58:30.401Z,99.90
2018-08-10T01:00:57.515Z,99.90
2018-08-10T01:03:24.724Z,99.90
2018-08-10T01:05:51.856Z,99.90
2018-08-10T01:08:18.956Z,99.90
2018-08-10T01:10:46.105Z,99.90
2018-08-10T01:13:13.271Z,99.70
2018-08-10T01:15:40.351Z,99.50
2018-08-10T01:18:07.449Z,99.50
2018-08-10T01:20:34.585Z,98.70
2018-08-10T01:23:06.618Z,98.70
2018-08-10T01:25:33.787Z,98.80
2018-08-10T01:28:02.127Z,98.90
2018-08-10T01:30:30.465Z,99.30
2018-08-10T01:32:57.804Z,99.60
2018-08-10T01:35:25.642Z,99.90
2018-08-10T01:37:53.167Z,99.80
2018-08-10T01:40:20.297Z,99.90
2018-08-10T01:42:47.475Z,99.90
2018-08-10T01:45:14.666Z,99.90
2018-08-10T01:47:41.785Z,99.90
2018-08-10T01:50:09.400Z,99.90
2018-08-10T01:52:36.960Z,99.90
2018-08-10T01:55:04.236Z,99.90
2018-08-10T01:57:31.382Z,99.90
2018-08-10T01:59:58.648Z,99.90
2018-08-10T02:02:25.741Z,99.90
2018-08-10T02:04:52.907Z,99.90
2018-08-10T02:07:20.043Z,99.90
2018-08-10T02:09:47.176Z,99.90
2018-08-10T02:12:14.285Z,99.90
2018-08-10T02:14:41.437Z,99.90
2018-08-10T02:17:08.604Z,99.90
2018-08-10T02:19:35.789Z,99.90
2018-08-10T02:22:02.940Z,99.90
2018-08-10T02:24:30.218Z,99.90
2018-08-10T02:26:57.368Z,99.90
2018-08-10T02:29:24.586Z,99.90
2018-08-10T02:31:51.707Z,99.90
2018-08-10T02:34:19.104Z,99.90
2018-08-10T02:36:46.287Z,99.90
2018-08-10T02:39:13.431Z,99.90
2018-08-10T02:41:40.568Z,99.90
2018-08-10T02:44:07.969Z,99.90
2018-08-10T02:46:35.130Z,99.90
2018-08-10T02:49:02.234Z,99.90
2018-08-10T02:51:29.401Z,99.90
2018-08-10T02:53:56.652Z,99.90
2018-08-10T02:56:23.848Z,99.90
2018-08-10T02:58:51.003Z,99.90
2018-08-10T03:01:18.431Z,99.90
2018-08-10T03:03:45.585Z,99.90
2018-08-10T03:06:12.783Z,99.90
2018-08-10T03:08:39.924Z,99.90
2018-08-10T03:11:07.172Z,99.90
2018-08-10T03:13:34.386Z,99.90
2018-08-10T03:16:01.566Z,99.90
2018-08-10T03:18:28.924Z,99.90
2018-08-10T03:20:56.109Z,99.90
2018-08-10T03:23:23.330Z,99.90
2018-08-10T03:25:50.471Z,99.90
2018-08-10T03:28:17.658Z,99.90
2018-08-10T03:30:44.805Z,99.90
2018-08-10T03:33:12.646Z,99.90
2018-08-10T03:35:46.528Z,99.90
2018-08-10T03:38:13.812Z,99.90
2018-08-10T03:40:41.052Z,99.90
2018-08-10T03:43:08.238Z,99.90
2018-08-10T03:45:35.424Z,99.90
2018-08-10T03:48:02.554Z,99.90
2018-08-10T03:50:29.753Z,99.90
2018-08-10T03:52:56.953Z,99.90
2018-08-10T03:55:24.071Z,99.90
2018-08-10T03:57:51.342Z,99.90
2018-08-10T04:00:18.491Z,99.90
2018-08-10T04:02:45.771Z,99.90
2018-08-10T04:05:12.933Z,99.90
2018-08-10T04:07:40.143Z,99.90
2018-08-10T04:10:08.201Z,99.90
2018-08-10T04:12:35.877Z,99.90
2018-08-10T04:15:03.938Z,99.90
2018-08-10T04:17:31.092Z,99.90
2018-08-10T04:19:58.215Z,99.90
2018-08-10T04:22:25.589Z,99.90
2018-08-10T04:24:52.736Z,99.90
2018-08-10T04:27:19.917Z,99.90
2018-08-10T04:29:47.273Z,99.90
2018-08-10T04:32:14.462Z,99.90
2018-08-10T04:34:41.740Z,99.90
2018-08-10T04:37:08.930Z,99.90
2018-08-10T04:39:36.137Z,99.90
2018-08-10T04:42:03.236Z,99.90
2018-08-10T04:44:30.399Z,99.90
2018-08-10T04:46:57.549Z,99.90
2018-08-10T04:49:24.677Z,99.90
2018-08-10T04:51:51.840Z,99.90
2018-08-10T04:54:19.091Z,99.90
2018-08-10T04:56:46.184Z,99.90
2018-08-10T04:59:13.374Z,99.90
2018-08-10T05:01:40.953Z,99.90
2018-08-10T05:04:08.197Z,99.90
2018-08-10T05:06:35.352Z,99.90
2018-08-10T05:09:03.044Z,99.90
2018-08-10T05:11:30.249Z,99.90
2018-08-10T05:13:57.712Z,99.90
2018-08-10T05:16:24.864Z,99.90
2018-08-10T05:18:51.992Z,99.90
2018-08-10T05:21:19.151Z,99.90
2018-08-10T05:23:46.455Z,99.90
2018-08-10T05:26:13.608Z,99.90
2018-08-10T05:28:41.049Z,99.90
2018-08-10T05:31:08.232Z,99.90
2018-08-10T05:33:35.946Z,99.90
2018-08-10T05:36:04.122Z,99.90
2018-08-10T05:38:31.220Z,99.90
2018-08-10T05:40:58.421Z,99.90
2018-08-10T05:43:25.583Z,99.90
2018-08-10T05:45:52.688Z,99.90
2018-08-10T05:48:19.873Z,99.90
2018-08-10T05:50:47.435Z,99.90
2018-08-10T05:53:14.797Z,99.90
2018-08-10T05:55:41.988Z,99.90
2018-08-10T05:58:09.211Z,99.90
2018-08-10T06:00:36.436Z,99.90
2018-08-10T06:03:03.636Z,99.90
2018-08-10T06:05:30.805Z,99.90
2018-08-10T06:07:57.993Z,99.90
2018-08-10T06:10:26.035Z,99.90
2018-08-10T06:12:53.802Z,99.90
2018-08-10T06:15:21.084Z,99.90
2018-08-10T06:20:22.276Z,99.90
2018-08-10T06:22:49.604Z,99.90
2018-08-10T06:25:17.246Z,99.90
2018-08-10T06:27:44.570Z,99.90
2018-08-10T06:30:12.321Z,99.90
2018-08-10T06:32:39.604Z,99.90
2018-08-10T06:35:07.047Z,99.90
2018-08-10T06:37:34.204Z,99.90
2018-08-10T06:40:01.387Z,99.90
2018-08-10T06:42:30.000Z,99.90
2018-08-10T06:44:57.362Z,99.90
2018-08-10T06:47:24.393Z,99.90
2018-08-10T06:49:52.133Z,99.90
2018-08-10T06:52:19.392Z,99.90
2018-08-10T06:54:46.609Z,99.90
2018-08-10T06:57:13.881Z,99.90
2018-08-10T06:59:41.049Z,99.90
2018-08-10T07:02:08.211Z,99.90
2018-08-10T07:04:36.005Z,99.90
2018-08-10T07:07:03.184Z,99.90
2018-08-10T07:09:30.372Z,99.80
2018-08-10T07:11:57.683Z,99.80
2018-08-10T07:14:24.836Z,99.30
2018-08-10T07:16:52.056Z,98.70
2018-08-10T07:19:19.308Z,98.60
2018-08-10T07:21:47.049Z,98.20
2018-08-10T07:24:14.161Z,98.50
2018-08-10T07:26:41.309Z,98.40
2018-08-10T07:29:08.680Z,98.30
2018-08-10T07:31:35.869Z,98.20
2018-08-10T07:34:03.007Z,98.40
2018-08-10T07:36:30.120Z,98.50
2018-08-10T07:38:57.268Z,97.70
2018-08-10T07:41:24.367Z,97.50
2018-08-10T07:43:51.555Z,97.90
2018-08-10T07:46:18.763Z,97.90
2018-08-10T07:48:48.135Z,97.80
2018-08-10T07:51:17.949Z,97.80
2018-08-10T07:53:45.508Z,97.50
2018-08-10T07:56:13.102Z,97.40
2018-08-10T07:58:40.295Z,96.70
2018-08-10T08:01:07.473Z,96.30
2018-08-10T08:03:34.637Z,96.40
2018-08-10T08:06:01.904Z,96.80
2018-08-10T08:08:29.096Z,95.80
2018-08-10T08:13:30.439Z,96.50
2018-08-10T08:15:57.632Z,96.00
2018-08-10T08:18:24.718Z,95.90
2018-08-10T08:21:02.570Z,96.10
2018-08-10T08:23:29.856Z,95.30
2018-08-10T08:25:57.032Z,95.00
2018-08-10T08:28:28.050Z,94.10
2018-08-10T08:30:56.477Z,94.10
2018-08-10T08:33:23.956Z,94.30
2018-08-10T08:35:51.194Z,95.50
2018-08-10T08:38:30.807Z,95.50
2018-08-10T08:40:58.024Z,93.70
2018-08-10T08:43:38.136Z,93.10
2018-08-10T08:46:07.454Z,93.20
2018-08-10T08:48:40.252Z,93.40
2018-08-10T08:51:16.778Z,93.40
2018-08-10T08:53:43.998Z,93.40
2018-08-10T08:56:17.748Z,93.50
2018-08-10T08:58:46.367Z,93.70
2018-08-10T09:01:13.893Z,94.00
2018-08-10T09:04:52.323Z,93.20
2018-08-10T09:07:19.541Z,92.90
2018-08-10T09:09:46.670Z,90.80
2018-08-10T09:12:13.864Z,90.80
2018-08-10T09:14:47.607Z,91.40
2018-08-10T09:17:14.958Z,91.40
2018-08-10T09:19:42.244Z,91.60
2018-08-10T09:22:10.001Z,90.80
2018-08-10T09:24:38.360Z,91.00
2018-08-10T09:27:06.123Z,92.00
2018-08-10T09:29:34.082Z,92.50
2018-08-10T09:32:01.825Z,92.60
2018-08-10T09:34:29.745Z,92.60
2018-08-10T09:36:57.463Z,92.50
2018-08-10T09:39:25.001Z,92.40
2018-08-10T09:41:52.196Z,92.80
2018-08-10T09:44:19.415Z,93.00
2018-08-10T09:46:46.565Z,92.30
2018-08-10T09:49:13.928Z,92.90
2018-08-10T09:51:41.125Z,92.90
2018-08-10T09:54:08.427Z,92.90
2018-08-10T09:56:35.808Z,93.00
2018-08-10T09:59:03.046Z,93.10
2018-08-10T10:01:34.925Z,93.10
2018-08-10T10:04:02.053Z,93.30
2018-08-10T10:06:29.340Z,93.00
2018-08-10T10:08:56.501Z,93.10
2018-08-10T10:11:23.846Z,93.40
2018-08-10T10:13:51.072Z,93.40
2018-08-10T10:16:18.291Z,92.80
2018-08-10T10:18:45.522Z,92.50
2018-08-10T10:21:12.752Z,92.90
2018-08-10T10:23:40.550Z,93.40
2018-08-10T10:26:07.804Z,92.70
2018-08-10T10:28:35.385Z,92.50
2018-08-10T10:31:03.045Z,92.20
2018-08-10T10:33:31.246Z,92.00
2018-08-10T10:35:58.446Z,92.00
2018-08-10T10:38:26.577Z,91.80
2018-08-10T10:40:53.709Z,92.00
2018-08-10T10:43:21.976Z,91.70
2018-08-10T10:45:49.101Z,91.50
2018-08-10T10:48:16.314Z,91.40
2018-08-10T10:50:44.490Z,90.70
2018-08-10T10:53:11.700Z,90.90
2018-08-10T10:55:39.428Z,90.50
2018-08-10T10:58:06.740Z,89.90
2018-08-10T11:00:37.290Z,90.00
2018-08-10T11:03:04.569Z,89.10
2018-08-10T11:05:31.775Z,87.30
2018-08-10T11:07:58.999Z,87.40
2018-08-10T11:10:26.279Z,87.70
2018-08-10T11:13:00.116Z,87.80
2018-08-10T11:15:27.405Z,88.00
2018-08-10T11:17:54.737Z,90.00
2018-08-10T11:20:21.920Z,89.10
2018-08-10T11:22:49.120Z,88.40
2018-08-10T11:25:21.160Z,87.40
2018-08-10T11:27:48.320Z,87.80
2018-08-10T11:30:15.552Z,87.80
2018-08-10T11:32:42.821Z,86.00
2018-08-10T11:35:10.169Z,85.20
2018-08-10T11:37:38.208Z,86.00
2018-08-10T11:40:07.247Z,85.50
2018-08-10T11:42:34.527Z,86.80
2018-08-10T11:45:01.955Z,86.30
2018-08-10T11:47:30.111Z,84.70
2018-08-10T11:49:57.355Z,82.60
2018-08-10T11:52:25.189Z,83.20
2018-08-10T11:54:52.367Z,84.20
2018-08-10T11:57:20.613Z,83.60
2018-08-10T11:59:47.847Z,82.90
2018-08-10T12:02:15.144Z,83.60
2018-08-10T12:04:42.492Z,83.10
2018-08-10T12:07:10.231Z,81.60
2018-08-10T12:09:37.483Z,77.80
2018-08-10T12:12:04.792Z,79.30
2018-08-10T12:14:31.998Z,78.00
2018-08-10T12:16:59.312Z,78.90
2018-08-10T12:19:26.542Z,79.50
2018-08-10T12:21:53.755Z,79.10
2018-08-10T12:24:20.942Z,77.90
2018-08-10T12:26:49.402Z,78.30
2018-08-10T12:29:16.605Z,78.80
2018-08-10T12:31:43.916Z,79.10
2018-08-10T12:34:11.223Z,79.10
2018-08-10T12:36:38.696Z,78.60
2018-08-10T12:39:09.879Z,78.90
2018-08-10T12:41:37.913Z,77.40
2018-08-10T12:44:05.238Z,76.50
2018-08-10T12:46:32.379Z,75.60
2018-08-10T12:48:59.558Z,73.70
2018-08-10T12:51:26.940Z,72.80
2018-08-10T12:53:54.092Z,72.60
2018-08-10T12:56:21.378Z,68.60
2018-08-10T12:58:48.560Z,68.50
2018-08-10T13:01:15.823Z,69.20
2018-08-10T13:03:43.239Z,69.10
2018-08-10T13:06:10.416Z,68.90
2018-08-10T13:08:37.662Z,68.60
2018-08-10T13:11:04.825Z,68.00
2018-08-10T13:13:32.096Z,67.80
2018-08-10T13:15:59.274Z,68.70
2018-08-10T13:18:26.588Z,69.40
2018-08-10T13:20:53.728Z,69.30
2018-08-10T13:23:21.116Z,70.00
2018-08-10T13:25:48.300Z,67.30
2018-08-10T13:28:15.707Z,68.30
2018-08-10T13:30:42.968Z,68.50
2018-08-10T13:33:10.282Z,69.60
2018-08-10T13:35:37.623Z,69.20
2018-08-10T13:38:09.106Z,69.60
2018-08-10T13:40:36.985Z,69.80
2018-08-10T13:43:06.340Z,69.70
2018-08-10T13:45:33.552Z,69.90
2018-08-10T13:48:00.862Z,70.20
2018-08-10T13:50:28.956Z,69.70
2018-08-10T13:52:56.306Z,69.60
2018-08-10T13:55:24.027Z,69.70
2018-08-10T13:57:52.067Z,69.20
2018-08-10T14:00:20.085Z,68.30
2018-08-10T14:02:48.623Z,69.10
2018-08-10T14:05:16.521Z,68.40
2018-08-10T14:07:43.819Z,68.30
2018-08-10T14:10:12.244Z,68.80
2018-08-10T14:12:39.400Z,69.00
2018-08-10T14:15:06.997Z,69.70
2018-08-10T14:17:34.244Z,71.80
2018-08-10T14:20:01.482Z,70.80
2018-08-10T14:22:29.131Z,71.10
2018-08-10T14:24:56.340Z,70.30
2018-08-10T14:27:23.566Z,69.90
2018-08-10T14:29:50.772Z,70.30
2018-08-10T14:34:52.080Z,66.80
2018-08-10T14:37:19.285Z,66.60
2018-08-10T14:39:46.882Z,65.00
2018-08-10T14:42:14.146Z,63.50
2018-08-10T14:44:41.499Z,63.10
2018-08-10T14:47:08.905Z,64.00
2018-08-10T14:49:36.182Z,64.40
2018-08-10T14:52:03.422Z,62.30
2018-08-10T14:54:30.569Z,61.70
2018-08-10T14:56:57.845Z,60.80
2018-08-10T14:59:25.138Z,58.90
2018-08-10T15:01:52.322Z,57.60
2018-08-10T15:04:19.512Z,56.80
2018-08-10T15:08:05.913Z,57.20
2018-08-10T15:10:33.108Z,56.50
2018-08-10T15:13:00.467Z,57.40
2018-08-10T15:15:28.345Z,55.80
2018-08-10T15:17:55.802Z,56.00
2018-08-10T15:20:22.977Z,55.60
2018-08-10T15:22:50.168Z,55.40
2018-08-10T15:25:17.319Z,55.60
2018-08-10T15:27:44.648Z,55.90
2018-08-10T15:30:14.943Z,56.30
2018-08-10T15:32:42.513Z,56.10
2018-08-10T15:35:10.959Z,56.10
2018-08-10T15:37:38.326Z,54.70
2018-08-10T15:40:07.340Z,52.40
2018-08-10T15:42:34.527Z,51.70
2018-08-10T15:45:02.313Z,52.10
2018-08-10T15:47:29.679Z,52.60
2018-08-10T15:49:57.027Z,52.90
2018-08-10T15:52:24.096Z,52.20
2018-08-10T15:54:51.279Z,53.10
2018-08-10T15:57:18.549Z,52.70
2018-08-10T15:59:46.113Z,53.50
2018-08-10T16:02:13.430Z,53.50
2018-08-10T16:04:40.853Z,52.60
2018-08-10T16:07:08.665Z,52.90
2018-08-10T16:09:35.974Z,51.10
2018-08-10T16:12:03.224Z,51.30
2018-08-10T16:14:30.380Z,51.60
2018-08-10T16:16:57.833Z,51.80
2018-08-10T16:19:25.292Z,51.80
2018-08-10T16:21:52.464Z,51.00
2018-08-10T16:24:19.606Z,51.90
2018-08-10T16:26:46.867Z,52.50
2018-08-10T16:29:14.055Z,51.90
2018-08-10T16:31:41.324Z,51.10
2018-08-10T16:34:08.544Z,49.50
2018-08-10T16:36:35.744Z,49.40
2018-08-10T16:39:04.889Z,48.70
2018-08-10T16:41:32.056Z,48.60
2018-08-10T16:43:59.305Z,49.30
2018-08-10T16:46:27.162Z,49.30
2018-08-10T16:48:54.388Z,49.00
2018-08-10T16:51:22.443Z,50.60
2018-08-10T16:53:50.410Z,51.20
2018-08-10T16:56:17.638Z,50.90
2018-08-10T16:58:44.942Z,51.90
2018-08-10T17:01:13.254Z,51.30
2018-08-10T17:03:40.485Z,50.20
2018-08-10T17:06:07.815Z,48.90
2018-08-10T17:08:35.025Z,49.40
2018-08-10T17:11:02.311Z,49.70
2018-08-10T17:13:32.946Z,49.40
2018-08-10T17:16:00.266Z,49.50
2018-08-10T17:18:27.526Z,49.20
2018-08-10T17:20:54.753Z,49.00
2018-08-10T17:23:22.037Z,49.80
2018-08-10T17:25:49.257Z,50.60
2018-08-10T17:28:16.406Z,50.90
2018-08-10T17:30:43.588Z,51.70
2018-08-10T17:33:10.867Z,52.30
2018-08-10T17:35:38.064Z,52.20
2018-08-10T17:38:05.271Z,52.10
2018-08-10T17:40:32.549Z,51.90
2018-08-10T17:42:59.774Z,51.90
2018-08-10T17:45:26.933Z,52.10
2018-08-10T17:47:54.191Z,51.30
2018-08-10T17:50:21.444Z,51.00
2018-08-10T17:52:52.982Z,51.10
2018-08-10T17:55:20.673Z,51.80
2018-08-10T17:57:47.907Z,52.20
2018-08-10T18:00:18.497Z,52.30
2018-08-10T18:02:46.576Z,52.50
2018-08-10T18:05:14.950Z,51.70
2018-08-10T18:07:42.239Z,51.80
2018-08-10T18:10:10.380Z,51.90
2018-08-10T18:12:39.208Z,52.30
2018-08-10T18:15:08.187Z,52.60
2018-08-10T18:17:35.844Z,52.80
2018-08-10T18:20:04.282Z,53.00
2018-08-10T18:22:31.446Z,52.90
2018-08-10T18:24:58.618Z,52.90
2018-08-10T18:27:26.118Z,53.20
2018-08-10T18:29:53.326Z,53.50
2018-08-10T18:32:20.617Z,53.80
2018-08-10T18:34:47.829Z,53.70
2018-08-10T18:37:15.001Z,53.80
2018-08-10T18:39:42.259Z,54.00
2018-08-10T18:42:09.384Z,53.70
2018-08-10T18:44:36.685Z,53.90
2018-08-10T18:47:03.940Z,54.00
2018-08-10T18:49:31.213Z,54.10
2018-08-10T18:51:58.502Z,54.40
2018-08-10T18:54:26.531Z,54.20
2018-08-10T18:56:53.831Z,54.70
2018-08-10T18:59:21.005Z,54.80
2018-08-10T19:01:49.448Z,54.90
2018-08-10T19:04:16.643Z,55.00
2018-08-10T19:06:43.802Z,55.00
2018-08-10T19:09:11.051Z,55.70
2018-08-10T19:11:38.594Z,55.40
2018-08-10T19:14:06.128Z,55.10
2018-08-10T19:16:33.238Z,55.10
2018-08-10T19:19:00.430Z,56.00
2018-08-10T19:21:28.305Z,55.30
2018-08-10T19:23:55.607Z,55.20
2018-08-10T19:26:23.272Z,56.10
2018-08-10T19:28:51.448Z,55.60
2018-08-10T19:31:18.786Z,55.80
2018-08-10T19:33:47.322Z,55.50
2018-08-10T19:36:15.979Z,56.20
2018-08-10T19:38:44.450Z,56.00
2018-08-10T19:41:11.904Z,56.20
2018-08-10T19:43:39.924Z,56.20
2018-08-10T19:46:07.354Z,56.30
2018-08-10T19:48:35.148Z,56.60
2018-08-10T19:51:02.488Z,56.50
2018-08-10T19:53:29.858Z,56.40
2018-08-10T19:55:57.189Z,56.40
2018-08-10T19:58:25.232Z,56.20
2018-08-10T20:00:52.746Z,57.40
2018-08-10T20:03:20.132Z,57.10
2018-08-10T20:05:48.331Z,56.90
2018-08-10T20:08:17.067Z,56.80
2018-08-10T20:10:44.328Z,57.40
2018-08-10T20:13:11.603Z,57.40
2018-08-10T20:15:38.940Z,56.20
2018-08-10T20:18:06.800Z,57.30
2018-08-10T20:20:34.058Z,57.40
2018-08-10T20:23:01.370Z,57.30
2018-08-10T20:25:30.342Z,56.80
2018-08-10T20:27:58.466Z,58.40
2018-08-10T20:30:25.892Z,58.20
2018-08-10T20:32:53.711Z,58.20
2018-08-10T20:35:20.944Z,58.70
2018-08-10T20:37:49.098Z,58.00
2018-08-10T20:40:17.617Z,58.50
2018-08-10T20:42:45.474Z,56.10
2018-08-10T20:45:13.657Z,56.90
2018-08-10T20:47:41.031Z,56.90
2018-08-10T20:50:13.941Z,57.10
2018-08-10T20:52:41.522Z,57.00
2018-08-10T20:55:09.768Z,57.00
2018-08-10T20:57:37.171Z,55.20
2018-08-10T21:00:05.556Z,55.50
2018-08-10T21:02:33.412Z,55.60
2018-08-10T21:05:00.657Z,56.10
2018-08-10T21:07:27.850Z,56.40
2018-08-10T21:09:55.017Z,56.30
2018-08-10T21:12:22.186Z,55.90
2018-08-10T21:14:49.332Z,55.40
2018-08-10T21:17:16.485Z,55.60
2018-08-10T21:19:44.335Z,55.70
2018-08-10T21:22:12.430Z,55.60
2018-08-10T21:24:41.287Z,57.20
2018-08-10T21:27:08.560Z,56.70
2018-08-10T21:29:35.807Z,57.70
2018-08-10T21:32:03.310Z,59.40
2018-08-10T21:34:30.465Z,59.60
2018-08-10T21:36:57.671Z,59.90
2018-08-10T21:39:24.896Z,60.40
2018-08-10T21:41:52.153Z,61.10
2018-08-10T21:44:19.366Z,60.70
2018-08-10T21:46:46.536Z,61.20
2018-08-10T21:49:14.322Z,61.80
2018-08-10T21:51:41.501Z,61.80
2018-08-10T21:54:08.960Z,62.50
2018-08-10T21:56:36.191Z,62.50
2018-08-10T21:59:03.413Z,62.70
2018-08-10T22:01:30.583Z,63.20
2018-08-10T22:03:57.729Z,64.50
2018-08-10T22:06:24.857Z,64.00
2018-08-10T22:08:51.973Z,64.00
2018-08-10T22:11:19.088Z,65.20
2018-08-10T22:13:51.916Z,65.20
2018-08-10T22:16:24.756Z,65.30
2018-08-10T22:18:57.650Z,65.20
2018-08-10T22:21:24.808Z,65.40
2018-08-10T22:23:51.895Z,65.30
2018-08-10T22:26:19.136Z,66.10
2018-08-10T22:28:46.322Z,66.90
2018-08-10T22:31:13.440Z,66.50
2018-08-10T22:33:40.593Z,65.70
2018-08-10T22:36:07.732Z,66.60
2018-08-10T22:38:34.863Z,67.40
2018-08-10T22:41:01.984Z,66.70
2018-08-10T22:46:03.124Z,65.80
2018-08-10T22:48:30.235Z,65.50
2018-08-10T22:50:57.394Z,65.70
2018-08-10T22:53:24.539Z,65.50
2018-08-10T22:55:51.744Z,65.60
2018-08-10T22:58:18.843Z,65.70
2018-08-10T23:00:46.021Z,66.30
2018-08-10T23:03:13.235Z,66.60
2018-08-10T23:05:40.376Z,67.70
2018-08-10T23:08:07.778Z,68.30
2018-08-10T23:10:34.946Z,68.20
2018-08-10T23:13:02.127Z,69.80
2018-08-10T23:15:29.276Z,69.20
2018-08-10T23:17:56.456Z,69.80
2018-08-10T23:20:23.656Z,70.00
2018-08-10T23:22:50.911Z,70.50
2018-08-10T23:25:18.178Z,71.60
2018-08-10T23:27:45.518Z,72.50
2018-08-10T23:30:14.933Z,72.70
2018-08-10T23:32:42.548Z,71.90
2018-08-10T23:35:09.653Z,72.60
2018-08-10T23:37:37.220Z,73.10
2018-08-10T23:40:06.528Z,73.30
2018-08-10T23:42:33.646Z,73.70
2018-08-10T23:45:00.794Z,74.00
2018-08-10T23:47:27.954Z,74.80
2018-08-10T23:49:55.080Z,75.10
2018-08-10T23:52:22.220Z,74.40
2018-08-10T23:54:49.341Z,75.00
2018-08-10T23:57:16.515Z,73.80
2018-08-10T23:59:43.810Z,74.40
